sensor_id;sensor_type;location;lat;lon;timestamp;P1;durP1;ratioP1;P2;durP2;ratioP2
75932;SDS011;64803;52.356;5.310;2023-05-02T00:00:26;13.57;;;5.03;;
75932;SDS011;64803;52.356;5.310;2023-05-02T00:02:53;15.68;;;6.20;;
75932;SDS011;64803;52.356;5.310;2023-05-02T00:05:20;13.23;;;4.63;;
75932;SDS011;64803;52.356;5.310;2023-05-02T00:07:46;12.95;;;4.55;;
75932;SDS011;64803;52.356;5.310;2023-05-02T00:10:12;17.30;;;4.45;;
75932;SDS011;64803;52.356;5.310;2023-05-02T00:12:38;9.43;;;4.38;;
75932;SDS011;64803;52.356;5.310;2023-05-02T00:15:05;16.45;;;3.90;;
75932;SDS011;64803;52.356;5.310;2023-05-02T00:17:31;14.35;;;4.90;;
75932;SDS011;64803;52.356;5.310;2023-05-02T00:19:57;17.83;;;3.95;;
75932;SDS011;64803;52.356;5.310;2023-05-02T00:22:23;10.50;;;3.30;;
75932;SDS011;64803;52.356;5.310;2023-05-02T00:24:49;11.30;;;3.53;;
75932;SDS011;64803;52.356;5.310;2023-05-02T00:27:20;10.57;;;3.45;;
75932;SDS011;64803;52.356;5.310;2023-05-02T00:29:46;9.15;;;4.05;;
75932;SDS011;64803;52.356;5.310;2023-05-02T00:32:12;11.77;;;4.13;;
75932;SDS011;64803;52.356;5.310;2023-05-02T00:34:38;11.98;;;3.60;;
75932;SDS011;64803;52.356;5.310;2023-05-02T00:37:04;10.10;;;3.10;;
75932;SDS011;64803;52.356;5.310;2023-05-02T00:39:31;12.00;;;2.97;;
75932;SDS011;64803;52.356;5.310;2023-05-02T00:41:58;9.88;;;2.38;;
75932;SDS011;64803;52.356;5.310;2023-05-02T00:44:27;10.35;;;2.20;;
75932;SDS011;64803;52.356;5.310;2023-05-02T00:46:54;9.93;;;3.10;;
75932;SDS011;64803;52.356;5.310;2023-05-02T00:49:21;8.40;;;2.70;;
75932;SDS011;64803;52.356;5.310;2023-05-02T00:51:47;9.85;;;2.97;;
75932;SDS011;64803;52.356;5.310;2023-05-02T00:54:13;5.45;;;1.67;;
75932;SDS011;64803;52.356;5.310;2023-05-02T00:56:39;14.52;;;2.45;;
75932;SDS011;64803;52.356;5.310;2023-05-02T00:59:06;6.65;;;2.33;;
75932;SDS011;64803;52.356;5.310;2023-05-02T01:01:59;10.10;;;2.38;;
75932;SDS011;64803;52.356;5.310;2023-05-02T01:15:16;7.53;;;1.40;;
75932;SDS011;64803;52.356;5.310;2023-05-02T01:17:45;9.93;;;1.88;;
75932;SDS011;64803;52.356;5.310;2023-05-02T01:20:15;8.98;;;2.05;;
75932;SDS011;64803;52.356;5.310;2023-05-02T01:22:44;5.13;;;1.42;;
75932;SDS011;64803;52.356;5.310;2023-05-02T01:27:47;3.50;;;1.27;;
75932;SDS011;64803;52.356;5.310;2023-05-02T01:30:16;7.78;;;1.50;;
75932;SDS011;64803;52.356;5.310;2023-05-02T01:32:45;8.40;;;1.52;;
75932;SDS011;64803;52.356;5.310;2023-05-02T01:35:13;10.40;;;2.25;;
75932;SDS011;64803;52.356;5.310;2023-05-02T01:37:42;8.40;;;1.52;;
75932;SDS011;64803;52.356;5.310;2023-05-02T01:40:10;4.63;;;1.10;;
75932;SDS011;64803;52.356;5.310;2023-05-02T01:42:41;4.05;;;1.25;;
75932;SDS011;64803;52.356;5.310;2023-05-02T01:45:11;6.03;;;1.08;;
75932;SDS011;64803;52.356;5.310;2023-05-02T01:47:39;6.18;;;0.80;;
75932;SDS011;64803;52.356;5.310;2023-05-02T01:52:36;7.82;;;1.42;;
75932;SDS011;64803;52.356;5.310;2023-05-02T01:55:03;5.03;;;1.05;;
75932;SDS011;64803;52.356;5.310;2023-05-02T01:57:34;7.38;;;1.50;;
75932;SDS011;64803;52.356;5.310;2023-05-02T02:00:02;3.67;;;0.85;;
75932;SDS011;64803;52.356;5.310;2023-05-02T02:02:39;5.68;;;1.02;;
75932;SDS011;64803;52.356;5.310;2023-05-02T02:05:07;4.68;;;1.00;;
75932;SDS011;64803;52.356;5.310;2023-05-02T02:07:36;7.30;;;1.00;;
75932;SDS011;64803;52.356;5.310;2023-05-02T02:10:02;7.13;;;1.30;;
75932;SDS011;64803;52.356;5.310;2023-05-02T02:12:41;3.55;;;0.55;;
75932;SDS011;64803;52.356;5.310;2023-05-02T02:17:42;2.88;;;0.95;;
75932;SDS011;64803;52.356;5.310;2023-05-02T02:20:29;5.32;;;1.10;;
75932;SDS011;64803;52.356;5.310;2023-05-02T02:22:57;8.65;;;1.30;;
75932;SDS011;64803;52.356;5.310;2023-05-02T02:25:25;3.42;;;0.60;;
75932;SDS011;64803;52.356;5.310;2023-05-02T02:27:52;4.88;;;1.00;;
75932;SDS011;64803;52.356;5.310;2023-05-02T02:30:19;9.25;;;1.27;;
75932;SDS011;64803;52.356;5.310;2023-05-02T02:32:45;7.25;;;1.40;;
75932;SDS011;64803;52.356;5.310;2023-05-02T02:35:11;4.32;;;1.00;;
75932;SDS011;64803;52.356;5.310;2023-05-02T02:37:46;3.80;;;1.45;;
75932;SDS011;64803;52.356;5.310;2023-05-02T02:40:27;5.88;;;1.40;;
75932;SDS011;64803;52.356;5.310;2023-05-02T02:43:04;6.32;;;1.35;;
75932;SDS011;64803;52.356;5.310;2023-05-02T02:45:37;7.78;;;1.13;;
75932;SDS011;64803;52.356;5.310;2023-05-02T02:53:45;6.20;;;1.02;;
75932;SDS011;64803;52.356;5.310;2023-05-02T02:56:26;21.73;;;1.38;;
75932;SDS011;64803;52.356;5.310;2023-05-02T03:01:39;3.65;;;1.38;;
75932;SDS011;64803;52.356;5.310;2023-05-02T03:04:08;6.75;;;1.17;;
75932;SDS011;64803;52.356;5.310;2023-05-02T03:06:37;5.25;;;1.33;;
75932;SDS011;64803;52.356;5.310;2023-05-02T03:09:05;4.25;;;1.27;;
75932;SDS011;64803;52.356;5.310;2023-05-02T03:11:31;6.30;;;1.55;;
75932;SDS011;64803;52.356;5.310;2023-05-02T03:13:57;4.82;;;1.02;;
75932;SDS011;64803;52.356;5.310;2023-05-02T03:19:00;9.38;;;1.60;;
75932;SDS011;64803;52.356;5.310;2023-05-02T03:21:28;5.60;;;1.23;;
75932;SDS011;64803;52.356;5.310;2023-05-02T03:23:59;8.52;;;1.70;;
75932;SDS011;64803;52.356;5.310;2023-05-02T03:26:28;8.18;;;1.02;;
75932;SDS011;64803;52.356;5.310;2023-05-02T03:28:54;11.27;;;1.42;;
75932;SDS011;64803;52.356;5.310;2023-05-02T03:31:27;5.35;;;1.20;;
75932;SDS011;64803;52.356;5.310;2023-05-02T03:33:53;4.40;;;1.05;;
75932;SDS011;64803;52.356;5.310;2023-05-02T03:36:20;8.13;;;1.67;;
75932;SDS011;64803;52.356;5.310;2023-05-02T03:38:46;5.38;;;1.27;;
75932;SDS011;64803;52.356;5.310;2023-05-02T03:41:13;4.57;;;1.08;;
75932;SDS011;64803;52.356;5.310;2023-05-02T03:43:40;11.30;;;1.20;;
75932;SDS011;64803;52.356;5.310;2023-05-02T03:46:07;4.97;;;1.35;;
75932;SDS011;64803;52.356;5.310;2023-05-02T03:48:37;8.95;;;1.08;;
75932;SDS011;64803;52.356;5.310;2023-05-02T03:51:04;7.03;;;0.88;;
75932;SDS011;64803;52.356;5.310;2023-05-02T03:53:37;6.50;;;1.50;;
75932;SDS011;64803;52.356;5.310;2023-05-02T03:56:07;2.30;;;1.00;;
75932;SDS011;64803;52.356;5.310;2023-05-02T03:58:42;8.23;;;1.90;;
75932;SDS011;64803;52.356;5.310;2023-05-02T04:01:13;5.03;;;1.30;;
75932;SDS011;64803;52.356;5.310;2023-05-02T04:03:41;13.20;;;2.17;;
75932;SDS011;64803;52.356;5.310;2023-05-02T04:06:09;6.05;;;1.63;;
75932;SDS011;64803;52.356;5.310;2023-05-02T04:08:35;12.52;;;1.83;;
75932;SDS011;64803;52.356;5.310;2023-05-02T04:11:02;7.50;;;1.98;;
75932;SDS011;64803;52.356;5.310;2023-05-02T04:13:28;6.97;;;1.67;;
75932;SDS011;64803;52.356;5.310;2023-05-02T04:15:56;10.43;;;1.75;;
75932;SDS011;64803;52.356;5.310;2023-05-02T04:18:24;21.15;;;2.17;;
75932;SDS011;64803;52.356;5.310;2023-05-02T04:20:51;10.38;;;1.70;;
75932;SDS011;64803;52.356;5.310;2023-05-02T04:23:19;8.57;;;1.73;;
75932;SDS011;64803;52.356;5.310;2023-05-02T04:25:52;10.07;;;2.63;;
75932;SDS011;64803;52.356;5.310;2023-05-02T04:28:21;14.55;;;2.13;;
75932;SDS011;64803;52.356;5.310;2023-05-02T04:30:48;7.35;;;1.45;;
75932;SDS011;64803;52.356;5.310;2023-05-02T04:33:16;6.50;;;1.80;;
75932;SDS011;64803;52.356;5.310;2023-05-02T04:35:44;16.35;;;3.00;;
75932;SDS011;64803;52.356;5.310;2023-05-02T04:38:13;10.00;;;2.22;;
75932;SDS011;64803;52.356;5.310;2023-05-02T04:40:39;7.75;;;1.88;;
75932;SDS011;64803;52.356;5.310;2023-05-02T04:43:06;6.32;;;1.50;;
75932;SDS011;64803;52.356;5.310;2023-05-02T04:45:40;10.35;;;2.45;;
75932;SDS011;64803;52.356;5.310;2023-05-02T04:48:11;11.50;;;1.83;;
75932;SDS011;64803;52.356;5.310;2023-05-02T04:50:37;7.40;;;2.13;;
75932;SDS011;64803;52.356;5.310;2023-05-02T04:53:06;10.63;;;2.58;;
75932;SDS011;64803;52.356;5.310;2023-05-02T04:55:32;14.20;;;2.70;;
75932;SDS011;64803;52.356;5.310;2023-05-02T04:57:59;8.63;;;2.08;;
75932;SDS011;64803;52.356;5.310;2023-05-02T05:00:25;10.73;;;2.40;;
75932;SDS011;64803;52.356;5.310;2023-05-02T05:02:51;5.65;;;1.92;;
75932;SDS011;64803;52.356;5.310;2023-05-02T05:05:17;12.30;;;2.45;;
75932;SDS011;64803;52.356;5.310;2023-05-02T05:07:44;7.88;;;1.52;;
75932;SDS011;64803;52.356;5.310;2023-05-02T05:10:10;8.38;;;1.85;;
75932;SDS011;64803;52.356;5.310;2023-05-02T05:12:42;6.95;;;1.88;;
75932;SDS011;64803;52.356;5.310;2023-05-02T05:15:09;8.27;;;2.33;;
75932;SDS011;64803;52.356;5.310;2023-05-02T05:17:37;6.10;;;1.27;;
75932;SDS011;64803;52.356;5.310;2023-05-02T05:20:07;10.90;;;1.75;;
75932;SDS011;64803;52.356;5.310;2023-05-02T05:22:38;5.93;;;1.75;;
75932;SDS011;64803;52.356;5.310;2023-05-02T05:25:07;8.73;;;1.80;;
75932;SDS011;64803;52.356;5.310;2023-05-02T05:27:34;8.43;;;0.77;;
75932;SDS011;64803;52.356;5.310;2023-05-02T05:30:00;6.88;;;1.60;;
75932;SDS011;64803;52.356;5.310;2023-05-02T05:32:26;5.65;;;1.17;;
75932;SDS011;64803;52.356;5.310;2023-05-02T05:34:54;7.05;;;1.25;;
75932;SDS011;64803;52.356;5.310;2023-05-02T05:37:24;5.78;;;1.23;;
75932;SDS011;64803;52.356;5.310;2023-05-02T05:39:50;6.18;;;1.13;;
75932;SDS011;64803;52.356;5.310;2023-05-02T05:42:17;7.53;;;1.83;;
75932;SDS011;64803;52.356;5.310;2023-05-02T05:44:45;2.15;;;0.82;;
75932;SDS011;64803;52.356;5.310;2023-05-02T05:47:11;6.82;;;1.30;;
75932;SDS011;64803;52.356;5.310;2023-05-02T05:49:37;3.38;;;0.80;;
75932;SDS011;64803;52.356;5.310;2023-05-02T05:52:03;4.90;;;1.23;;
75932;SDS011;64803;52.356;5.310;2023-05-02T05:54:30;6.05;;;1.10;;
75932;SDS011;64803;52.356;5.310;2023-05-02T05:56:57;7.38;;;1.00;;
75932;SDS011;64803;52.356;5.310;2023-05-02T05:59:23;4.95;;;1.10;;
75932;SDS011;64803;52.356;5.310;2023-05-02T06:01:49;7.10;;;1.25;;
75932;SDS011;64803;52.356;5.310;2023-05-02T06:04:18;10.18;;;1.90;;
75932;SDS011;64803;52.356;5.310;2023-05-02T06:06:47;12.88;;;2.42;;
75932;SDS011;64803;52.356;5.310;2023-05-02T06:09:15;6.78;;;1.70;;
75932;SDS011;64803;52.356;5.310;2023-05-02T06:11:41;6.82;;;1.67;;
75932;SDS011;64803;52.356;5.310;2023-05-02T06:14:07;6.60;;;1.17;;
75932;SDS011;64803;52.356;5.310;2023-05-02T06:16:35;7.05;;;1.23;;
75932;SDS011;64803;52.356;5.310;2023-05-02T06:19:01;13.25;;;1.73;;
75932;SDS011;64803;52.356;5.310;2023-05-02T06:21:27;6.35;;;1.60;;
75932;SDS011;64803;52.356;5.310;2023-05-02T06:23:53;7.97;;;1.85;;
75932;SDS011;64803;52.356;5.310;2023-05-02T06:26:19;10.45;;;1.48;;
75932;SDS011;64803;52.356;5.310;2023-05-02T06:28:46;6.20;;;1.10;;
75932;SDS011;64803;52.356;5.310;2023-05-02T06:31:12;10.38;;;1.92;;
75932;SDS011;64803;52.356;5.310;2023-05-02T06:33:38;14.57;;;1.63;;
75932;SDS011;64803;52.356;5.310;2023-05-02T06:36:04;3.10;;;1.00;;
75932;SDS011;64803;52.356;5.310;2023-05-02T06:38:30;10.48;;;1.65;;
75932;SDS011;64803;52.356;5.310;2023-05-02T06:40:56;16.13;;;1.42;;
75932;SDS011;64803;52.356;5.310;2023-05-02T06:43:22;4.28;;;0.93;;
75932;SDS011;64803;52.356;5.310;2023-05-02T06:45:51;9.27;;;1.38;;
75932;SDS011;64803;52.356;5.310;2023-05-02T06:48:18;4.57;;;1.20;;
75932;SDS011;64803;52.356;5.310;2023-05-02T06:50:44;4.22;;;0.90;;
75932;SDS011;64803;52.356;5.310;2023-05-02T06:53:10;9.77;;;1.25;;
75932;SDS011;64803;52.356;5.310;2023-05-02T06:55:36;4.25;;;0.95;;
75932;SDS011;64803;52.356;5.310;2023-05-02T06:58:02;3.00;;;1.05;;
75932;SDS011;64803;52.356;5.310;2023-05-02T07:00:28;8.05;;;1.63;;
75932;SDS011;64803;52.356;5.310;2023-05-02T07:02:54;9.55;;;1.20;;
75932;SDS011;64803;52.356;5.310;2023-05-02T07:05:21;8.88;;;1.45;;
75932;SDS011;64803;52.356;5.310;2023-05-02T07:07:47;6.68;;;0.93;;
75932;SDS011;64803;52.356;5.310;2023-05-02T07:10:13;3.75;;;1.00;;
75932;SDS011;64803;52.356;5.310;2023-05-02T07:12:39;5.57;;;1.10;;
75932;SDS011;64803;52.356;5.310;2023-05-02T07:15:05;3.03;;;0.80;;
75932;SDS011;64803;52.356;5.310;2023-05-02T07:17:31;6.32;;;1.50;;
75932;SDS011;64803;52.356;5.310;2023-05-02T07:19:58;3.95;;;0.98;;
75932;SDS011;64803;52.356;5.310;2023-05-02T07:22:24;6.18;;;1.27;;
75932;SDS011;64803;52.356;5.310;2023-05-02T07:24:57;5.82;;;1.15;;
75932;SDS011;64803;52.356;5.310;2023-05-02T07:27:25;7.35;;;1.00;;
75932;SDS011;64803;52.356;5.310;2023-05-02T07:29:51;6.95;;;1.27;;
75932;SDS011;64803;52.356;5.310;2023-05-02T07:32:18;2.03;;;0.75;;
75932;SDS011;64803;52.356;5.310;2023-05-02T07:34:46;5.03;;;1.20;;
75932;SDS011;64803;52.356;5.310;2023-05-02T07:37:12;3.63;;;0.65;;
75932;SDS011;64803;52.356;5.310;2023-05-02T07:39:38;4.03;;;0.90;;
75932;SDS011;64803;52.356;5.310;2023-05-02T07:42:04;9.13;;;1.15;;
75932;SDS011;64803;52.356;5.310;2023-05-02T07:44:31;2.75;;;0.63;;
75932;SDS011;64803;52.356;5.310;2023-05-02T07:46:57;3.92;;;0.88;;
75932;SDS011;64803;52.356;5.310;2023-05-02T07:49:24;1.50;;;0.50;;
75932;SDS011;64803;52.356;5.310;2023-05-02T07:51:49;2.65;;;0.88;;
75932;SDS011;64803;52.356;5.310;2023-05-02T07:54:19;4.25;;;0.77;;
75932;SDS011;64803;52.356;5.310;2023-05-02T07:56:46;4.60;;;1.10;;
75932;SDS011;64803;52.356;5.310;2023-05-02T07:59:13;7.43;;;1.23;;
75932;SDS011;64803;52.356;5.310;2023-05-02T08:01:39;7.13;;;0.82;;
75932;SDS011;64803;52.356;5.310;2023-05-02T08:04:06;1.65;;;0.73;;
75932;SDS011;64803;52.356;5.310;2023-05-02T08:06:33;4.32;;;1.15;;
75932;SDS011;64803;52.356;5.310;2023-05-02T08:08:59;7.85;;;1.13;;
75932;SDS011;64803;52.356;5.310;2023-05-02T08:11:25;5.75;;;0.85;;
75932;SDS011;64803;52.356;5.310;2023-05-02T08:13:51;15.25;;;1.10;;
75932;SDS011;64803;52.356;5.310;2023-05-02T08:16:17;5.10;;;1.38;;
75932;SDS011;64803;52.356;5.310;2023-05-02T08:18:43;2.88;;;0.95;;
75932;SDS011;64803;52.356;5.310;2023-05-02T08:21:09;8.80;;;1.45;;
75932;SDS011;64803;52.356;5.310;2023-05-02T08:23:35;6.00;;;1.38;;
75932;SDS011;64803;52.356;5.310;2023-05-02T08:26:04;6.00;;;1.50;;
75932;SDS011;64803;52.356;5.310;2023-05-02T08:28:32;4.50;;;1.23;;
75932;SDS011;64803;52.356;5.310;2023-05-02T08:30:58;2.80;;;0.75;;
75932;SDS011;64803;52.356;5.310;2023-05-02T08:33:24;4.40;;;1.30;;
75932;SDS011;64803;52.356;5.310;2023-05-02T08:35:50;9.65;;;1.10;;
75932;SDS011;64803;52.356;5.310;2023-05-02T08:38:17;8.65;;;1.20;;
75932;SDS011;64803;52.356;5.310;2023-05-02T08:40:43;3.65;;;0.70;;
75932;SDS011;64803;52.356;5.310;2023-05-02T08:43:10;3.38;;;0.63;;
75932;SDS011;64803;52.356;5.310;2023-05-02T08:45:41;3.60;;;1.05;;
75932;SDS011;64803;52.356;5.310;2023-05-02T08:48:09;4.38;;;1.02;;
75932;SDS011;64803;52.356;5.310;2023-05-02T08:50:37;3.80;;;1.10;;
75932;SDS011;64803;52.356;5.310;2023-05-02T08:53:03;2.45;;;0.68;;
75932;SDS011;64803;52.356;5.310;2023-05-02T08:55:30;3.75;;;0.88;;
75932;SDS011;64803;52.356;5.310;2023-05-02T08:57:58;4.38;;;0.70;;
75932;SDS011;64803;52.356;5.310;2023-05-02T09:00:25;9.98;;;2.17;;
75932;SDS011;64803;52.356;5.310;2023-05-02T09:02:56;3.92;;;1.15;;
75932;SDS011;64803;52.356;5.310;2023-05-02T09:05:32;6.82;;;1.55;;
75932;SDS011;64803;52.356;5.310;2023-05-02T09:08:06;4.35;;;1.45;;
75932;SDS011;64803;52.356;5.310;2023-05-02T09:10:35;8.00;;;1.45;;
75932;SDS011;64803;52.356;5.310;2023-05-02T09:16:00;5.32;;;0.75;;
75932;SDS011;64803;52.356;5.310;2023-05-02T09:18:34;7.03;;;0.98;;
75932;SDS011;64803;52.356;5.310;2023-05-02T09:21:08;8.45;;;1.60;;
75932;SDS011;64803;52.356;5.310;2023-05-02T09:26:22;7.32;;;1.42;;
75932;SDS011;64803;52.356;5.310;2023-05-02T09:31:18;13.18;;;1.58;;
75932;SDS011;64803;52.356;5.310;2023-05-02T09:33:46;6.95;;;1.13;;
75932;SDS011;64803;52.356;5.310;2023-05-02T09:36:14;4.85;;;1.10;;
75932;SDS011;64803;52.356;5.310;2023-05-02T09:38:43;9.57;;;1.23;;
75932;SDS011;64803;52.356;5.310;2023-05-02T09:41:10;6.28;;;1.27;;
75932;SDS011;64803;52.356;5.310;2023-05-02T09:43:37;3.63;;;1.15;;
75932;SDS011;64803;52.356;5.310;2023-05-02T09:46:07;6.38;;;1.23;;
75932;SDS011;64803;52.356;5.310;2023-05-02T09:48:50;5.10;;;1.30;;
75932;SDS011;64803;52.356;5.310;2023-05-02T09:51:21;8.80;;;1.67;;
75932;SDS011;64803;52.356;5.310;2023-05-02T09:56:15;8.45;;;0.90;;
75932;SDS011;64803;52.356;5.310;2023-05-02T09:58:41;9.68;;;1.58;;
75932;SDS011;64803;52.356;5.310;2023-05-02T10:01:10;7.40;;;1.05;;
75932;SDS011;64803;52.356;5.310;2023-05-02T10:03:39;5.18;;;1.05;;
75932;SDS011;64803;52.356;5.310;2023-05-02T10:06:07;3.97;;;1.02;;
75932;SDS011;64803;52.356;5.310;2023-05-02T10:10:59;5.88;;;1.15;;
75932;SDS011;64803;52.356;5.310;2023-05-02T10:13:29;5.47;;;1.85;;
75932;SDS011;64803;52.356;5.310;2023-05-02T10:16:02;6.93;;;1.65;;
75932;SDS011;64803;52.356;5.310;2023-05-02T10:21:11;5.93;;;1.75;;
75932;SDS011;64803;52.356;5.310;2023-05-02T10:23:42;8.43;;;1.58;;
75932;SDS011;64803;52.356;5.310;2023-05-02T10:26:15;7.45;;;1.85;;
75932;SDS011;64803;52.356;5.310;2023-05-02T10:28:42;6.93;;;1.60;;
75932;SDS011;64803;52.356;5.310;2023-05-02T10:31:08;4.45;;;1.20;;
75932;SDS011;64803;52.356;5.310;2023-05-02T10:33:35;5.60;;;1.23;;
75932;SDS011;64803;52.356;5.310;2023-05-02T10:36:01;7.43;;;1.50;;
75932;SDS011;64803;52.356;5.310;2023-05-02T10:38:28;6.57;;;1.48;;
75932;SDS011;64803;52.356;5.310;2023-05-02T10:41:01;5.57;;;1.50;;
75932;SDS011;64803;52.356;5.310;2023-05-02T10:43:33;7.38;;;1.67;;
75932;SDS011;64803;52.356;5.310;2023-05-02T10:45:59;10.43;;;1.55;;
75932;SDS011;64803;52.356;5.310;2023-05-02T10:48:28;13.05;;;2.47;;
75932;SDS011;64803;52.356;5.310;2023-05-02T10:50:55;7.47;;;1.20;;
75932;SDS011;64803;52.356;5.310;2023-05-02T10:53:23;5.25;;;1.25;;
75932;SDS011;64803;52.356;5.310;2023-05-02T10:58:42;5.47;;;1.13;;
75932;SDS011;64803;52.356;5.310;2023-05-02T11:04:08;5.75;;;1.48;;
75932;SDS011;64803;52.356;5.310;2023-05-02T11:06:36;4.20;;;1.02;;
75932;SDS011;64803;52.356;5.310;2023-05-02T11:11:47;3.28;;;1.17;;
75932;SDS011;64803;52.356;5.310;2023-05-02T11:19:24;4.28;;;1.23;;
75932;SDS011;64803;52.356;5.310;2023-05-02T11:21:51;6.90;;;1.70;;
75932;SDS011;64803;52.356;5.310;2023-05-02T11:24:40;11.15;;;1.52;;
75932;SDS011;64803;52.356;5.310;2023-05-02T11:29:57;3.28;;;1.00;;
75932;SDS011;64803;52.356;5.310;2023-05-02T11:32:24;6.18;;;1.20;;
75932;SDS011;64803;52.356;5.310;2023-05-02T11:35:14;9.38;;;1.67;;
75932;SDS011;64803;52.356;5.310;2023-05-02T11:37:42;4.90;;;1.10;;
75932;SDS011;64803;52.356;5.310;2023-05-02T11:40:11;5.68;;;1.10;;
75932;SDS011;64803;52.356;5.310;2023-05-02T11:42:38;9.95;;;1.60;;
75932;SDS011;64803;52.356;5.310;2023-05-02T11:47:32;8.13;;;1.75;;
75932;SDS011;64803;52.356;5.310;2023-05-02T11:49:58;4.07;;;1.00;;
75932;SDS011;64803;52.356;5.310;2023-05-02T11:52:27;4.80;;;0.98;;
75932;SDS011;64803;52.356;5.310;2023-05-02T11:54:53;7.45;;;1.75;;
75932;SDS011;64803;52.356;5.310;2023-05-02T11:59:48;5.38;;;1.35;;
75932;SDS011;64803;52.356;5.310;2023-05-02T12:02:15;4.30;;;0.88;;
75932;SDS011;64803;52.356;5.310;2023-05-02T12:04:41;7.90;;;1.20;;
75932;SDS011;64803;52.356;5.310;2023-05-02T12:07:09;5.28;;;1.23;;
75932;SDS011;64803;52.356;5.310;2023-05-02T12:09:35;5.05;;;1.00;;
75932;SDS011;64803;52.356;5.310;2023-05-02T12:12:18;4.35;;;1.27;;
75932;SDS011;64803;52.356;5.310;2023-05-02T12:14:45;5.25;;;1.15;;
75932;SDS011;64803;52.356;5.310;2023-05-02T12:17:11;7.43;;;1.20;;
75932;SDS011;64803;52.356;5.310;2023-05-02T12:19:37;14.38;;;1.75;;
75932;SDS011;64803;52.356;5.310;2023-05-02T12:22:04;4.82;;;1.10;;
75932;SDS011;64803;52.356;5.310;2023-05-02T12:24:32;6.20;;;1.75;;
75932;SDS011;64803;52.356;5.310;2023-05-02T12:27:10;9.95;;;1.38;;
75932;SDS011;64803;52.356;5.310;2023-05-02T12:32:06;6.38;;;1.50;;
75932;SDS011;64803;52.356;5.310;2023-05-02T12:34:32;6.50;;;1.27;;
75932;SDS011;64803;52.356;5.310;2023-05-02T12:36:59;11.10;;;1.52;;
75932;SDS011;64803;52.356;5.310;2023-05-02T12:39:35;3.17;;;0.88;;
75932;SDS011;64803;52.356;5.310;2023-05-02T12:42:12;4.55;;;1.17;;
75932;SDS011;64803;52.356;5.310;2023-05-02T12:44:43;3.67;;;0.98;;
75932;SDS011;64803;52.356;5.310;2023-05-02T12:47:11;7.15;;;1.40;;
75932;SDS011;64803;52.356;5.310;2023-05-02T12:53:06;5.28;;;1.23;;
75932;SDS011;64803;52.356;5.310;2023-05-02T12:55:16;5.28;;;1.30;;
75932;SDS011;64803;52.356;5.310;2023-05-02T12:57:43;5.35;;;1.27;;
75932;SDS011;64803;52.356;5.310;2023-05-02T13:00:09;7.75;;;1.35;;
75932;SDS011;64803;52.356;5.310;2023-05-02T13:02:36;2.10;;;0.80;;
75932;SDS011;64803;52.356;5.310;2023-05-02T13:05:12;2.53;;;0.85;;
75932;SDS011;64803;52.356;5.310;2023-05-02T13:07:47;3.78;;;0.82;;
75932;SDS011;64803;52.356;5.310;2023-05-02T13:10:13;3.65;;;1.13;;
75932;SDS011;64803;52.356;5.310;2023-05-02T13:12:42;1.13;;;0.35;;
75932;SDS011;64803;52.356;5.310;2023-05-02T13:15:12;6.13;;;1.02;;
75932;SDS011;64803;52.356;5.310;2023-05-02T13:17:39;4.25;;;0.95;;
75932;SDS011;64803;52.356;5.310;2023-05-02T13:20:06;2.63;;;0.90;;
75932;SDS011;64803;52.356;5.310;2023-05-02T13:24:59;2.67;;;0.90;;
75932;SDS011;64803;52.356;5.310;2023-05-02T13:27:25;4.18;;;0.80;;
75932;SDS011;64803;52.356;5.310;2023-05-02T13:29:52;6.22;;;1.90;;
75932;SDS011;64803;52.356;5.310;2023-05-02T13:32:18;2.20;;;0.52;;
75932;SDS011;64803;52.356;5.310;2023-05-02T13:34:45;2.15;;;0.80;;
75932;SDS011;64803;52.356;5.310;2023-05-02T13:37:11;3.05;;;0.75;;
75932;SDS011;64803;52.356;5.310;2023-05-02T13:39:37;6.40;;;0.82;;
75932;SDS011;64803;52.356;5.310;2023-05-02T13:42:03;6.65;;;1.20;;
75932;SDS011;64803;52.356;5.310;2023-05-02T13:44:29;3.25;;;1.15;;
75932;SDS011;64803;52.356;5.310;2023-05-02T13:46:56;4.88;;;1.00;;
75932;SDS011;64803;52.356;5.310;2023-05-02T13:49:22;4.38;;;1.05;;
75932;SDS011;64803;52.356;5.310;2023-05-02T13:51:48;6.28;;;1.08;;
75932;SDS011;64803;52.356;5.310;2023-05-02T13:54:14;7.47;;;1.00;;
75932;SDS011;64803;52.356;5.310;2023-05-02T13:56:43;2.78;;;0.98;;
75932;SDS011;64803;52.356;5.310;2023-05-02T13:59:09;2.90;;;0.60;;
75932;SDS011;64803;52.356;5.310;2023-05-02T14:01:35;11.90;;;1.52;;
75932;SDS011;64803;52.356;5.310;2023-05-02T14:04:05;1.85;;;0.65;;
75932;SDS011;64803;52.356;5.310;2023-05-02T14:06:33;1.73;;;0.63;;
75932;SDS011;64803;52.356;5.310;2023-05-02T14:09:00;6.50;;;0.95;;
75932;SDS011;64803;52.356;5.310;2023-05-02T14:11:26;2.67;;;0.60;;
75932;SDS011;64803;52.356;5.310;2023-05-02T14:13:52;4.00;;;0.80;;
75932;SDS011;64803;52.356;5.310;2023-05-02T14:16:18;4.43;;;0.98;;
75932;SDS011;64803;52.356;5.310;2023-05-02T14:18:44;2.92;;;1.00;;
75932;SDS011;64803;52.356;5.310;2023-05-02T14:21:11;3.17;;;1.08;;
75932;SDS011;64803;52.356;5.310;2023-05-02T14:23:37;5.32;;;1.00;;
75932;SDS011;64803;52.356;5.310;2023-05-02T14:26:03;3.95;;;0.90;;
75932;SDS011;64803;52.356;5.310;2023-05-02T14:28:29;4.07;;;1.38;;
75932;SDS011;64803;52.356;5.310;2023-05-02T14:30:55;6.55;;;0.88;;
75932;SDS011;64803;52.356;5.310;2023-05-02T14:33:21;5.20;;;0.82;;
75932;SDS011;64803;52.356;5.310;2023-05-02T14:35:47;2.22;;;0.95;;
75932;SDS011;64803;52.356;5.310;2023-05-02T14:38:13;9.60;;;1.10;;
75932;SDS011;64803;52.356;5.310;2023-05-02T14:40:39;2.72;;;1.00;;
75932;SDS011;64803;52.356;5.310;2023-05-02T14:43:05;3.13;;;0.95;;
75932;SDS011;64803;52.356;5.310;2023-05-02T14:45:33;4.63;;;1.00;;
75932;SDS011;64803;52.356;5.310;2023-05-02T14:47:59;3.55;;;0.60;;
75932;SDS011;64803;52.356;5.310;2023-05-02T14:50:26;3.42;;;1.10;;
75932;SDS011;64803;52.356;5.310;2023-05-02T14:52:52;2.47;;;0.80;;
75932;SDS011;64803;52.356;5.310;2023-05-02T14:55:18;4.13;;;0.70;;
75932;SDS011;64803;52.356;5.310;2023-05-02T14:57:44;2.97;;;0.80;;
75932;SDS011;64803;52.356;5.310;2023-05-02T15:00:10;3.28;;;0.70;;
75932;SDS011;64803;52.356;5.310;2023-05-02T15:02:37;5.20;;;0.95;;
75932;SDS011;64803;52.356;5.310;2023-05-02T15:05:03;1.83;;;0.50;;
75932;SDS011;64803;52.356;5.310;2023-05-02T15:07:31;7.82;;;0.95;;
75932;SDS011;64803;52.356;5.310;2023-05-02T15:09:57;5.63;;;0.90;;
75932;SDS011;64803;52.356;5.310;2023-05-02T15:12:23;3.22;;;0.55;;
75932;SDS011;64803;52.356;5.310;2023-05-02T15:14:50;1.85;;;0.85;;
75932;SDS011;64803;52.356;5.310;2023-05-02T15:17:16;4.22;;;0.63;;
75932;SDS011;64803;52.356;5.310;2023-05-02T15:19:43;2.85;;;0.77;;
75932;SDS011;64803;52.356;5.310;2023-05-02T15:22:08;3.30;;;1.00;;
75932;SDS011;64803;52.356;5.310;2023-05-02T15:24:34;3.63;;;1.00;;
75932;SDS011;64803;52.356;5.310;2023-05-02T15:27:01;5.00;;;1.02;;
75932;SDS011;64803;52.356;5.310;2023-05-02T15:29:28;1.92;;;0.63;;
75932;SDS011;64803;52.356;5.310;2023-05-02T15:31:54;3.45;;;0.88;;
75932;SDS011;64803;52.356;5.310;2023-05-02T15:34:20;4.90;;;1.15;;
75932;SDS011;64803;52.356;5.310;2023-05-02T15:36:46;1.80;;;0.60;;
75932;SDS011;64803;52.356;5.310;2023-05-02T15:39:12;5.60;;;0.88;;
75932;SDS011;64803;52.356;5.310;2023-05-02T15:41:38;3.05;;;0.90;;
75932;SDS011;64803;52.356;5.310;2023-05-02T15:44:04;1.92;;;0.55;;
75932;SDS011;64803;52.356;5.310;2023-05-02T15:46:30;2.88;;;0.82;;
75932;SDS011;64803;52.356;5.310;2023-05-02T15:48:56;4.28;;;0.60;;
75932;SDS011;64803;52.356;5.310;2023-05-02T15:51:22;2.28;;;0.70;;
75932;SDS011;64803;52.356;5.310;2023-05-02T15:53:48;15.55;;;0.90;;
75932;SDS011;64803;52.356;5.310;2023-05-02T15:56:16;1.45;;;0.50;;
75932;SDS011;64803;52.356;5.310;2023-05-02T15:58:43;4.53;;;0.80;;
75932;SDS011;64803;52.356;5.310;2023-05-02T16:01:09;3.55;;;0.73;;
75932;SDS011;64803;52.356;5.310;2023-05-02T16:03:35;0.65;;;0.50;;